createdAt,value
2022-12-11T01:12:42.031Z,-3.30
2022-12-11T01:15:13.554Z,-3.20
2022-12-11T01:17:43.529Z,-3.60
2022-12-11T01:20:14.463Z,-2.70
2022-12-11T01:22:44.370Z,-3.40
2022-12-11T01:25:14.451Z,-3.40
2022-12-11T01:27:46.970Z,-3.30
2022-12-11T01:30:17.150Z,-3.40
2022-12-11T01:35:17.715Z,-3.60
2022-12-11T01:40:19.780Z,-3.90
2022-12-11T01:42:52.566Z,-2.60
2022-12-11T01:45:36.542Z,-3.50
2022-12-11T01:48:10.457Z,-3.60
2022-12-11T01:50:45.166Z,-3.90
2022-12-11T01:53:20.089Z,-3.80
2022-12-11T01:55:51.167Z,-3.80
2022-12-11T01:58:26.267Z,-3.90
2022-12-11T02:00:57.417Z,-3.90
2022-12-11T02:03:27.964Z,-3.80
2022-12-11T02:08:28.315Z,-3.90
2022-12-11T02:11:08.313Z,-4.00
2022-12-11T02:13:47.600Z,-3.90
2022-12-11T02:16:27.527Z,-4.10
2022-12-11T02:19:03.251Z,-3.90
2022-12-11T02:21:40.245Z,-3.90
2022-12-11T02:24:33.673Z,-3.40
2022-12-11T02:27:23.007Z,-3.40
2022-12-11T02:29:59.876Z,-3.90
2022-12-11T02:32:36.662Z,-4.20
2022-12-11T02:35:14.380Z,-4.00
2022-12-11T02:37:47.813Z,-3.00
2022-12-11T02:40:22.028Z,-4.10
2022-12-11T02:42:53.343Z,-4.10
2022-12-11T02:45:29.059Z,-4.00
2022-12-11T02:48:01.363Z,-4.10
2022-12-11T02:50:32.738Z,-4.10
2022-12-11T02:53:05.517Z,-4.00
2022-12-11T02:55:36.481Z,-4.00
2022-12-11T02:58:10.987Z,-3.90
2022-12-11T03:00:43.257Z,-3.50
2022-12-11T03:03:13.206Z,-4.00
2022-12-11T03:05:46.184Z,-4.10
2022-12-11T03:08:17.424Z,-3.80
2022-12-11T03:10:48.147Z,-4.80
2022-12-11T03:13:22.869Z,-4.00
2022-12-11T03:16:10.273Z,-4.20
2022-12-11T03:18:47.377Z,-3.90
2022-12-11T03:21:22.085Z,-4.10
2022-12-11T03:23:58.153Z,-3.90
2022-12-11T03:29:01.337Z,-3.80
2022-12-11T03:31:40.541Z,-3.80
2022-12-11T03:34:17.508Z,-3.90
2022-12-11T03:36:50.406Z,-3.80
2022-12-11T03:39:24.605Z,-3.80
2022-12-11T03:41:56.533Z,-3.80
2022-12-11T03:44:27.539Z,-3.90
2022-12-11T03:47:02.132Z,-3.70
2022-12-11T03:49:37.218Z,-3.70
2022-12-11T03:52:08.970Z,-3.70
2022-12-11T03:54:40.680Z,-3.70
2022-12-11T03:57:13.078Z,-3.60
2022-12-11T03:59:43.028Z,-3.50
2022-12-11T04:02:15.549Z,-4.00
2022-12-11T04:04:46.030Z,-3.70
2022-12-11T04:07:15.929Z,-3.60
2022-12-11T04:09:45.835Z,-3.50
2022-12-11T04:17:43.845Z,-3.50
2022-12-11T04:20:27.149Z,-3.50
2022-12-11T04:23:09.571Z,-3.30
2022-12-11T04:28:09.682Z,-3.60
2022-12-11T04:33:12.323Z,-3.50
2022-12-11T04:35:42.241Z,-3.50
2022-12-11T04:38:12.148Z,-3.70
2022-12-11T04:40:42.022Z,-3.40
2022-12-11T04:43:12.017Z,-3.60
2022-12-11T04:48:14.663Z,-3.50
2022-12-11T04:50:44.535Z,-3.50
2022-12-11T04:53:14.392Z,-3.40
2022-12-11T04:55:44.277Z,-3.40
2022-12-11T05:00:44.966Z,-2.70
2022-12-11T05:03:17.594Z,-3.80
2022-12-11T05:05:51.227Z,-3.20
2022-12-11T05:08:21.407Z,-3.50
2022-12-11T05:10:58.432Z,-3.40
2022-12-11T05:18:31.827Z,-2.20
2022-12-11T05:21:03.445Z,-3.40
2022-12-11T05:26:06.812Z,-3.60
2022-12-11T05:28:38.641Z,-3.50
2022-12-11T05:31:11.597Z,-3.30
2022-12-11T05:33:44.477Z,-3.10
2022-12-11T05:36:19.488Z,-3.30
2022-12-11T05:38:49.692Z,-3.20
2022-12-11T05:41:21.833Z,-3.20
2022-12-11T05:46:24.735Z,-3.70
2022-12-11T05:48:59.756Z,-2.90
2022-12-11T05:51:30.201Z,-3.20
2022-12-11T05:54:00.979Z,-3.40
2022-12-11T05:56:32.845Z,-3.30
2022-12-11T05:59:04.190Z,-3.60
2022-12-11T06:01:37.337Z,-3.50
2022-12-11T06:04:11.351Z,-3.00
2022-12-11T06:06:43.944Z,-3.30
2022-12-11T06:09:16.405Z,-3.40
2022-12-11T06:16:46.930Z,-3.70
2022-12-11T06:19:20.279Z,-3.70
2022-12-11T06:21:50.238Z,-2.60
2022-12-11T06:24:20.216Z,-3.50
2022-12-11T06:29:20.280Z,-3.80
2022-12-11T06:31:53.064Z,-3.50
2022-12-11T06:34:25.678Z,-3.60
2022-12-11T06:36:55.544Z,-3.90
2022-12-11T06:44:25.749Z,-3.70
2022-12-11T06:46:55.568Z,-4.10
2022-12-11T06:49:28.166Z,-3.90
2022-12-11T06:51:58.551Z,-3.70
2022-12-11T06:54:29.571Z,-3.80
2022-12-11T06:56:59.450Z,-3.60
2022-12-11T06:59:29.435Z,-3.80
2022-12-11T07:04:32.218Z,-3.70
2022-12-11T07:07:02.089Z,-2.60
2022-12-11T10:01:38.981Z,-2.90
2022-12-11T10:04:29.615Z,-2.90
2022-12-11T10:07:12.243Z,-2.80
2022-12-11T10:09:50.151Z,-2.90
2022-12-11T10:12:37.978Z,-2.90
2022-12-11T10:15:26.963Z,-2.90
2022-12-11T10:18:04.697Z,-2.90
2022-12-11T10:20:39.491Z,-2.90
2022-12-11T10:23:18.242Z,-2.90
2022-12-11T10:25:52.739Z,-2.90
2022-12-11T10:28:23.044Z,-2.90
2022-12-11T10:41:08.350Z,-2.80
2022-12-11T10:43:40.338Z,-2.60
2022-12-11T10:46:19.929Z,-2.60
2022-12-11T10:54:02.642Z,-2.50
2022-12-11T10:56:38.046Z,-2.40
2022-12-11T11:24:45.252Z,-2.20
2022-12-11T11:35:21.570Z,-1.90
2022-12-11T11:43:12.800Z,-2.00
2022-12-11T12:01:17.523Z,-2.60
2022-12-11T12:03:49.656Z,-2.60
2022-12-11T12:09:02.519Z,-2.60
2022-12-11T12:11:37.679Z,-2.50
2022-12-11T12:14:51.275Z,-2.50
2022-12-11T12:17:22.381Z,-2.60
2022-12-11T12:35:38.491Z,-2.30
2022-12-11T12:38:18.022Z,-2.40
2022-12-11T12:54:10.672Z,-2.20
2022-12-11T13:04:58.173Z,-2.10
2022-12-11T13:07:31.409Z,-2.30
2022-12-11T13:10:04.404Z,-2.30
2022-12-11T13:12:37.703Z,-2.30
2022-12-11T13:15:25.761Z,-2.30
2022-12-11T13:17:58.998Z,-2.50
2022-12-11T13:20:30.691Z,-2.50
2022-12-11T13:23:20.271Z,-2.40
2022-12-11T13:25:54.042Z,-2.70
2022-12-11T13:28:28.405Z,-3.10
2022-12-11T13:31:07.395Z,-2.70
2022-12-11T13:33:47.094Z,-2.90
2022-12-11T13:36:34.060Z,-2.70
2022-12-11T13:39:07.560Z,-2.90
2022-12-11T13:41:40.308Z,-2.00
2022-12-11T13:46:42.151Z,-2.90
2022-12-11T13:49:24.563Z,-2.90
2022-12-11T13:51:56.457Z,-2.90
2022-12-11T13:57:01.959Z,-2.80
2022-12-11T13:59:35.358Z,-2.80
2022-12-11T14:02:15.173Z,-2.80
2022-12-11T14:04:48.669Z,-2.80
2022-12-11T14:07:23.287Z,-2.90
2022-12-11T14:09:54.068Z,-2.90
2022-12-11T14:12:24.979Z,-2.90
2022-12-11T14:14:58.355Z,-2.90
2022-12-11T14:17:30.682Z,-2.90
2022-12-11T14:20:10.557Z,-2.90
2022-12-11T14:25:23.167Z,-2.80
2022-12-11T14:27:56.272Z,-3.00
2022-12-11T14:30:28.254Z,-3.30
2022-12-11T14:33:00.938Z,-3.10
2022-12-11T14:35:39.192Z,-3.10
2022-12-11T14:38:18.274Z,-3.10
2022-12-11T14:40:52.673Z,-3.10
2022-12-11T14:43:28.678Z,-3.00
2022-12-11T14:46:03.205Z,-3.10
2022-12-11T14:48:38.864Z,-3.30
2022-12-11T14:51:16.217Z,-3.10
2022-12-11T14:53:50.792Z,-3.10
2022-12-11T14:56:23.663Z,-3.10
2022-12-11T14:58:59.595Z,-3.10
2022-12-11T15:01:32.525Z,-3.10
2022-12-11T15:04:08.999Z,-3.20
2022-12-11T15:06:47.886Z,-3.10
2022-12-11T15:09:22.776Z,-3.30
2022-12-11T15:11:54.262Z,-3.10
2022-12-11T15:14:26.621Z,-3.20
2022-12-11T15:16:59.581Z,-3.20
2022-12-11T15:19:34.137Z,-3.20
2022-12-11T15:22:08.437Z,-3.20
2022-12-11T15:24:42.484Z,-3.20
2022-12-11T15:27:25.774Z,-3.20
2022-12-11T15:32:27.053Z,-3.20
2022-12-11T15:34:59.401Z,-3.30
2022-12-11T15:37:36.135Z,-3.20
2022-12-11T15:40:07.897Z,-3.40
2022-12-11T15:42:39.937Z,-3.20
2022-12-11T15:45:12.207Z,-3.30
2022-12-11T15:47:43.500Z,-3.40
2022-12-11T15:50:19.264Z,-3.30
2022-12-11T15:52:53.181Z,-3.30
2022-12-11T15:55:25.062Z,-3.20
2022-12-11T15:57:57.995Z,-3.30
2022-12-11T16:02:59.659Z,-3.30
2022-12-11T16:08:03.097Z,-3.50
2022-12-11T16:18:05.752Z,-3.40
2022-12-11T16:20:36.759Z,-3.40
2022-12-11T16:23:10.259Z,-3.30
2022-12-11T16:25:41.338Z,-3.50
2022-12-11T16:28:13.149Z,-3.50
2022-12-11T16:30:43.881Z,-3.70
2022-12-11T16:38:20.025Z,-3.40
2022-12-11T16:45:56.663Z,-3.80
2022-12-11T16:48:27.665Z,-3.80
2022-12-11T16:53:32.262Z,-3.60
2022-12-11T17:03:35.246Z,-3.90
2022-12-11T17:06:09.753Z,-4.00
2022-12-11T17:08:42.817Z,-4.00
2022-12-11T17:11:15.272Z,-4.00
2022-12-11T17:16:18.452Z,-4.10
2022-12-11T17:18:48.408Z,-3.80
2022-12-11T17:21:20.872Z,-3.90
2022-12-11T17:23:53.778Z,-3.80
2022-12-11T17:39:00.511Z,-3.90
2022-12-11T17:54:04.821Z,-3.80
2022-12-11T18:01:36.629Z,-4.00
2022-12-11T18:09:11.326Z,-3.80
2022-12-11T18:16:48.538Z,-3.70
2022-12-11T18:21:49.639Z,-3.80
2022-12-11T18:24:22.649Z,-3.80
2022-12-11T18:34:24.808Z,-3.50
2022-12-11T18:39:27.890Z,-3.80
2022-12-11T18:47:18.963Z,-4.00
2022-12-11T18:54:52.449Z,-3.80
2022-12-11T18:59:54.190Z,-3.80
2022-12-11T19:02:25.073Z,-3.70
2022-12-11T19:09:58.627Z,-3.80
2022-12-11T19:22:49.495Z,-3.90
2022-12-11T19:25:22.211Z,-3.80
2022-12-11T19:40:27.276Z,-3.80
2022-12-11T19:50:28.289Z,-4.00
2022-12-11T19:52:58.166Z,-3.80
2022-12-11T19:55:30.743Z,-3.70
2022-12-11T19:58:01.082Z,-3.70
2022-12-11T20:00:31.289Z,-3.70
2022-12-11T20:03:01.514Z,-3.70
2022-12-11T20:05:31.521Z,-3.60
2022-12-11T20:08:27.322Z,-3.70
2022-12-11T20:10:54.556Z,-4.10
2022-12-11T20:13:24.699Z,-3.80
2022-12-11T20:15:54.770Z,-3.60
2022-12-11T20:18:25.060Z,-3.70
2022-12-11T20:20:55.049Z,-3.60
2022-12-11T20:23:24.997Z,-3.40
2022-12-11T20:25:59.059Z,-3.80
2022-12-11T20:31:06.706Z,-3.60
2022-12-11T20:33:36.945Z,-3.80
2022-12-11T20:36:10.301Z,-3.50
2022-12-11T20:38:40.440Z,-3.50
2022-12-11T20:41:15.373Z,-3.70
2022-12-11T20:43:46.008Z,-3.60
2022-12-11T20:46:18.487Z,-3.60
2022-12-11T20:51:25.798Z,-3.70
2022-12-11T20:53:59.300Z,-3.50
2022-12-11T20:56:33.928Z,-3.60
2022-12-11T21:01:35.680Z,-3.60
2022-12-11T21:04:05.889Z,-3.70
2022-12-11T21:06:38.728Z,-3.80
2022-12-11T21:09:12.329Z,-3.70
2022-12-11T21:11:44.850Z,-3.60
2022-12-11T21:14:15.749Z,-3.60
2022-12-11T21:16:45.917Z,-3.70
2022-12-11T21:19:17.415Z,-3.50
2022-12-11T21:21:48.028Z,-3.60
2022-12-11T21:24:20.235Z,-3.60
2022-12-11T21:26:55.195Z,-3.50
2022-12-11T21:34:26.048Z,-3.70
2022-12-11T21:36:59.787Z,-3.70
2022-12-11T21:39:36.062Z,-3.60
2022-12-11T21:42:11.629Z,-3.60
2022-12-11T21:45:31.383Z,-2.70
2022-12-11T21:47:31.416Z,-3.80
2022-12-11T21:50:01.353Z,-3.50
2022-12-11T21:55:01.460Z,-3.60
2022-12-11T21:57:34.025Z,-3.80
2022-12-11T22:02:42.193Z,-3.60
2022-12-11T22:05:12.800Z,-3.70
2022-12-11T22:07:42.848Z,-3.90
2022-12-11T22:10:13.502Z,-3.90
2022-12-11T22:12:46.188Z,-3.80
2022-12-11T22:15:16.141Z,-3.10
2022-12-11T22:17:45.974Z,-3.70
2022-12-11T22:20:15.989Z,-3.60
2022-12-11T22:25:16.697Z,-3.90
2022-12-11T22:27:49.166Z,-4.00
2022-12-11T22:30:19.329Z,-3.60
2022-12-11T22:32:51.344Z,-3.70
2022-12-11T22:35:26.886Z,-3.90
2022-12-11T22:37:57.198Z,-2.80
2022-12-11T22:40:27.257Z,-3.20
2022-12-11T22:42:59.776Z,-4.00
2022-12-11T22:45:29.701Z,-3.90
2022-12-11T22:47:59.704Z,-3.90
2022-12-11T22:50:29.538Z,-3.60
2022-12-11T22:52:59.382Z,-3.80
2022-12-11T22:55:29.266Z,-3.60
2022-12-11T22:58:01.827Z,-4.10
2022-12-11T23:03:02.451Z,-3.90
2022-12-11T23:05:32.468Z,-3.90
2022-12-11T23:08:02.419Z,-3.90
2022-12-11T23:10:32.351Z,-4.00
2022-12-11T23:13:04.767Z,-4.00
2022-12-11T23:20:35.214Z,-3.70
2022-12-11T23:28:08.237Z,-3.40
2022-12-11T23:30:38.159Z,-3.80
2022-12-11T23:33:08.711Z,-3.80
2022-12-11T23:35:38.701Z,-3.80
2022-12-11T23:38:08.733Z,-3.90
2022-12-11T23:40:39.429Z,-4.10
2022-12-11T23:43:11.907Z,-3.90
2022-12-11T23:45:41.877Z,-3.70
2022-12-11T23:48:12.660Z,-4.20
2022-12-11T23:50:43.047Z,-3.90
2022-12-11T23:53:13.525Z,-3.80
2022-12-11T23:58:16.465Z,-3.70
